Time;durP1;ratioP1;P1;durP2;ratioP2;P2;SDS_P1;SDS_P2;PMS_P1;PMS_P2;Temp;Humidity;BMP_temperature;BMP_pressure;BME280_temperature;BME280_humidity;BME280_pressure;Samples;Min_cycle;Max_cycle;Signal;HPM_P1;HPM_P2
2021/11/10 00:06:49;;;;;;;26.83;10.65;;;3.20;99.90;;;;;;20913386;28;20045;-80
2021/11/10 00:16:52;;;;;;;26.05;12.55;;;3.10;99.90;;;;;;20981219;28;20495;-78
2021/11/10 00:26:54;;;;;;;18.95;7.65;;;3.30;99.90;;;;;;20980499;28;20029;-79
2021/11/10 00:36:56;;;;;;;15.70;7.63;;;3.10;99.90;;;;;;20998945;28;20051;-80
2021/11/10 00:46:57;;;;;;;14.10;6.80;;;3.00;99.90;;;;;;20980540;28;20021;-79
2021/11/10 00:56:58;;;;;;;18.30;8.85;;;3.30;99.90;;;;;;20980899;28;20033;-80
2021/11/10 01:06:59;;;;;;;27.10;10.10;;;3.20;99.90;;;;;;20978441;28;20730;-79
2021/11/10 01:17:00;;;;;;;;;;;3.10;99.90;;;;;;20978376;28;20029;-80
2021/11/10 01:27:01;;;;;;;23.03;10.50;;;2.90;99.90;;;;;;20978569;28;19913;-79
2021/11/10 01:37:03;;;;;;;28.65;14.45;;;2.70;99.90;;;;;;20978013;28;20057;-80
2021/11/10 01:47:09;;;;;;;32.88;15.00;;;2.60;99.90;;;;;;20975727;28;20060;-79
2021/11/10 01:57:12;;;;;;;25.42;13.35;;;2.60;99.90;;;;;;20973850;28;20499;-79
2021/11/10 02:07:16;;;;;;;33.08;13.90;;;2.50;99.90;;;;;;20957725;28;20024;-79
2021/11/10 02:17:20;;;;;;;32.85;14.32;;;2.40;99.90;;;;;;20973258;28;20033;-79
2021/11/10 02:27:32;;;;;;;26.92;12.73;;;2.50;99.90;;;;;;20955647;28;20029;-79
2021/11/10 02:37:34;;;;;;;22.98;12.82;;;2.40;99.90;;;;;;20989668;28;20029;-80
2021/11/10 02:47:36;;;;;;;34.15;13.20;;;2.10;99.90;;;;;;20970963;28;20617;-79
2021/11/10 02:57:38;;;;;;;35.75;14.55;;;2.20;99.90;;;;;;20988946;28;20068;-79
2021/11/10 03:07:39;;;;;;;32.92;15.45;;;2.20;99.90;;;;;;20987787;28;20029;-79
2021/11/10 03:17:41;;;;;;;36.50;14.85;;;2.30;99.90;;;;;;20969509;28;20029;-79
2021/11/10 03:27:42;;;;;;;23.65;12.57;;;2.40;99.90;;;;;;20950284;28;20037;-80
2021/11/10 03:37:46;;;;;;;29.02;15.07;;;2.20;99.90;;;;;;20967323;28;20056;-79
2021/11/10 03:47:48;;;;;;;35.05;16.10;;;2.00;99.90;;;;;;20952638;28;20056;-79
2021/11/10 03:57:49;;;;;;;41.42;17.73;;;1.90;99.90;;;;;;20945956;28;20044;-80
2021/11/10 04:07:51;;;;;;;39.97;17.27;;;1.90;99.90;;;;;;20965703;28;20013;-80
2021/11/10 04:17:53;;;;;;;42.38;17.73;;;1.90;99.90;;;;;;20967323;28;20051;-80
2021/11/10 04:27:54;;;;;;;31.23;13.63;;;2.00;99.90;;;;;;20978443;28;20484;-77
2021/11/10 04:37:58;;;;;;;31.52;12.98;;;1.80;99.90;;;;;;20894468;28;20172;-77
2021/11/10 04:48:00;;;;;;;35.00;16.27;;;1.70;99.90;;;;;;20838632;28;20052;-78
2021/11/10 04:58:02;;;;;;;34.35;16.05;;;1.40;99.90;;;;;;20772657;28;20029;-77
2021/11/10 05:08:03;;;;;;;40.90;16.38;;;1.60;99.90;;;;;;20745655;28;20030;-78
2021/11/10 05:18:06;;;;;;;42.72;19.30;;;1.60;99.90;;;;;;20735221;28;20036;-78
2021/11/10 05:28:07;;;;;;;49.47;18.58;;;1.80;99.90;;;;;;20732894;28;20073;-78
2021/11/10 05:38:09;;;;;;;44.45;18.17;;;1.90;99.90;;;;;;20733993;28;20037;-79
2021/11/10 05:48:10;;;;;;;43.45;17.80;;;2.00;99.90;;;;;;20733260;28;20497;-79
2021/11/10 05:58:12;;;;;;;34.50;16.40;;;2.00;99.90;;;;;;20749645;28;20089;-78
2021/11/10 06:08:12;;;;;;;38.28;17.13;;;1.80;99.90;;;;;;20777676;28;20037;-81
2021/11/10 06:18:13;;;;;;;38.83;15.80;;;1.80;99.90;;;;;;20818248;28;20034;-82
2021/11/10 06:28:14;;;;;;;35.53;15.60;;;1.80;99.90;;;;;;20803414;28;20030;-81
2021/11/10 06:38:15;;;;;;;32.67;15.18;;;1.90;99.90;;;;;;20800995;28;20038;-80
2021/11/10 06:48:16;;;;;;;35.15;16.85;;;1.80;99.90;;;;;;20768443;28;20097;-81
2021/11/10 06:58:17;;;;;;;40.15;16.77;;;1.80;99.90;;;;;;20818890;28;20031;-81
2021/11/10 07:08:18;;;;;;;41.20;18.13;;;1.80;99.90;;;;;;20805741;28;20034;-79
2021/11/10 07:18:18;;;;;;;38.20;16.75;;;1.90;99.90;;;;;;20790623;28;20038;-80
2021/11/10 07:28:19;;;;;;;36.08;16.20;;;1.90;99.90;;;;;;20815129;28;20084;-80
2021/11/10 07:38:24;;;;;;;36.55;17.25;;;2.00;99.90;;;;;;20816340;28;20029;-80
2021/11/10 07:48:25;;;;;;;48.45;19.40;;;2.20;99.90;;;;;;20788884;28;20038;-79
2021/11/10 07:58:26;;;;;;;39.50;18.83;;;2.50;99.90;;;;;;20761503;28;20065;-80
2021/11/10 08:08:27;;;;;;;38.05;16.80;;;2.60;99.90;;;;;;20796493;28;20034;-80
2021/11/10 08:18:30;;;;;;;32.75;16.63;;;2.80;99.90;;;;;;20894884;28;20487;-80
2021/11/10 08:28:31;;;;;;;41.35;16.70;;;2.90;99.90;;;;;;20916104;28;20052;-82
2021/11/10 08:38:32;;;;;;;33.83;15.77;;;3.30;99.90;;;;;;20917105;28;20041;-80
2021/11/10 08:48:33;;;;;;;;;;;3.40;99.90;;;;;;20901954;28;20041;-80
2021/11/10 08:58:34;;;;;;;37.42;17.05;;;3.70;99.90;;;;;;20914271;28;19913;-81
2021/11/10 09:08:35;;;;;;;;;;;3.80;99.90;;;;;;20899169;28;20037;-80
2021/11/10 09:18:38;;;;;;;36.23;16.03;;;4.30;99.90;;;;;;20915560;28;20399;-80
2021/11/10 09:28:39;;;;;;;31.50;17.15;;;4.50;99.90;;;;;;20896624;28;20116;-81
2021/11/10 09:38:40;;;;;;;;;;;5.00;99.90;;;;;;20881037;28;20029;-80
2021/11/10 09:48:42;;;;;;;40.28;15.88;;;5.10;99.90;;;;;;20913828;28;19916;-81
2021/11/10 09:58:46;;;;;;;34.40;17.35;;;5.50;99.90;;;;;;20894934;28;20048;-80
2021/11/10 10:08:47;;;;;;;37.78;19.13;;;5.70;99.90;;;;;;20891019;28;20041;-80
2021/11/10 10:18:49;;;;;;;31.10;16.33;;;5.60;99.90;;;;;;20904507;28;20056;-79
2021/11/10 10:28:51;;;;;;;;;;;5.80;99.90;;;;;;20896410;28;20096;-79
2021/11/10 10:38:55;;;;;;;35.13;17.58;;;6.30;99.90;;;;;;20874411;28;19913;-81
2021/11/10 10:49:19;;;;;;;32.30;16.60;;;6.30;99.90;;;;;;20889153;28;20037;-80
2021/11/10 10:59:26;;;;;;;34.25;17.63;;;6.50;99.90;;;;;;20874367;28;20033;-79
2021/11/10 11:09:33;;;;;;;33.53;17.58;;;6.60;99.90;;;;;;20874608;28;20030;-80
2021/11/10 11:19:37;;;;;;;34.40;17.58;;;7.00;99.90;;;;;;20746915;28;20083;-79
2021/11/10 11:29:38;;;;;;;40.25;18.67;;;6.50;99.90;;;;;;20817576;28;20041;-79
2021/11/10 11:39:39;;;;;;;41.05;19.77;;;6.90;99.90;;;;;;20832390;28;20026;-81
2021/11/10 11:49:41;;;;;;;37.37;19.63;;;7.20;99.90;;;;;;20829655;28;20030;-79
2021/11/10 11:59:43;;;;;;;37.38;18.83;;;7.30;99.90;;;;;;20788216;28;20026;-82
2021/11/10 12:09:44;;;;;;;34.65;17.90;;;7.60;99.90;;;;;;20781776;28;20376;-82
2021/11/10 12:20:02;;;;;;;33.43;16.67;;;7.60;99.90;;;;;;20845982;28;20061;-79
2021/11/10 12:30:18;;;;;;;38.50;18.85;;;7.60;99.90;;;;;;20843809;28;20037;-80
2021/11/10 12:40:28;;;;;;;34.53;17.88;;;7.80;99.90;;;;;;20841909;28;20045;-82
2021/11/10 12:50:42;;;;;;;39.72;18.33;;;7.60;99.90;;;;;;20838156;28;20120;-83
2021/11/10 13:00:43;;;;;;;38.83;19.33;;;7.70;99.90;;;;;;20839379;28;20041;-84
2021/11/10 13:10:44;;;;;;;31.63;17.90;;;7.90;99.90;;;;;;20823141;28;20101;-83
2021/11/10 13:20:51;;;;;;;34.20;18.97;;;7.90;99.90;;;;;;20839667;28;20399;-81
2021/11/10 13:30:55;;;;;;;36.20;17.95;;;7.60;99.90;;;;;;20820905;28;20069;-82
2021/11/10 13:40:56;;;;;;;40.63;18.98;;;7.90;99.90;;;;;;20837742;28;20033;-82
2021/11/10 13:50:57;;;;;;;35.17;19.03;;;8.00;99.90;;;;;;20836841;28;20021;-82
2021/11/10 14:00:57;;;;;;;37.30;19.80;;;7.80;99.90;;;;;;20836219;28;20040;-84
2021/11/10 14:10:59;;;;;;;40.97;20.03;;;7.80;99.90;;;;;;20816064;28;20061;-81
2021/11/10 14:21:03;;;;;;;34.28;19.23;;;7.90;99.90;;;;;;20818753;28;20030;-81
2021/11/10 14:31:16;;;;;;;35.63;19.35;;;7.80;99.90;;;;;;20833971;28;20040;-81
2021/11/10 14:42:15;;;;;;;43.50;21.88;;;7.60;99.90;;;;;;20840284;28;20488;-81
2021/11/10 14:51:53;;;;;;;40.10;20.80;;;7.20;99.90;;;;;;20881906;28;20408;-79
2021/11/10 15:02:16;;;;;;;37.33;19.80;;;7.00;99.90;;;;;;20894311;28;20268;-78
2021/11/10 15:12:24;;;;;;;39.72;21.65;;;7.00;99.90;;;;;;20884557;28;20109;-80
2021/11/10 15:22:31;;;;;;;40.85;19.88;;;7.00;99.90;;;;;;20880831;28;20040;-80
2021/11/10 15:32:32;;;;;;;42.42;20.85;;;7.00;99.90;;;;;;20883443;28;20083;-81
2021/11/10 15:42:33;;;;;;;36.57;19.17;;;6.90;99.90;;;;;;20901776;28;20057;-80
2021/11/10 15:52:34;;;;;;;46.00;21.13;;;6.50;99.90;;;;;;20856860;28;20055;-79
2021/11/10 16:02:36;;;;;;;43.45;20.73;;;5.80;99.90;;;;;;20860453;28;20038;-81
2021/11/10 16:12:37;;;;;;;49.38;24.85;;;5.70;99.90;;;;;;20827298;28;20161;-80
2021/11/10 16:22:38;;;;;;;45.47;21.75;;;5.50;99.90;;;;;;20805978;28;20385;-80
2021/11/10 16:32:53;;;;;;;47.00;20.90;;;5.50;99.90;;;;;;20803823;28;20041;-79
2021/11/10 16:42:54;;;;;;;47.63;21.48;;;5.30;99.90;;;;;;20835015;28;20576;-80
2021/11/10 16:52:55;;;;;;;42.63;19.27;;;5.10;99.90;;;;;;20810659;28;20041;-80
2021/11/10 17:02:56;;;;;;;45.53;19.10;;;5.10;99.90;;;;;;20832872;28;20041;-80
2021/11/10 17:12:57;;;;;;;48.93;21.40;;;5.10;99.90;;;;;;20835864;28;20017;-80
2021/11/10 17:22:58;;;;;;;41.63;20.53;;;4.70;99.90;;;;;;20832500;28;20272;-79
2021/11/10 17:32:59;;;;;;;53.13;21.98;;;4.60;99.90;;;;;;20817821;28;20293;-79
2021/11/10 17:42:59;;;;;;;40.35;21.98;;;4.50;99.90;;;;;;20831816;28;20041;-80
2021/11/10 17:53:04;;;;;;;47.65;21.05;;;4.50;99.90;;;;;;20828035;28;20045;-78
2021/11/10 18:03:05;;;;;;;50.00;22.85;;;4.20;99.90;;;;;;20809960;28;20041;-79
2021/11/10 18:13:06;;;;;;;;;;;4.50;99.90;;;;;;20866017;28;20036;-78
2021/11/10 18:23:07;;;;;;;35.92;17.08;;;4.40;99.90;;;;;;20902690;28;19912;-80
2021/11/10 18:33:07;;;;;;;37.65;18.30;;;3.90;99.90;;;;;;20907070;28;20044;-79
2021/11/10 18:43:08;;;;;;;42.00;18.88;;;3.90;99.90;;;;;;20884797;28;20030;-80
2021/11/10 18:53:09;;;;;;;47.10;22.38;;;3.90;99.90;;;;;;20884048;28;20025;-81
2021/11/10 19:03:13;;;;;;;38.50;20.42;;;3.60;99.90;;;;;;20857165;28;20030;-81
2021/11/10 19:13:34;;;;;;;42.50;20.63;;;3.40;99.90;;;;;;20868667;28;20097;-80
2021/11/10 19:23:34;;;;;;;41.90;18.27;;;3.20;99.90;;;;;;20898424;28;20089;-80
2021/11/10 19:33:35;;;;;;;57.05;24.20;;;2.90;99.90;;;;;;20879322;28;20029;-79
2021/11/10 19:43:38;;;;;;;44.08;20.42;;;3.00;99.90;;;;;;20899566;28;20087;-78
2021/11/10 19:53:39;;;;;;;38.85;17.17;;;2.80;99.90;;;;;;20883361;28;20036;-79
2021/11/10 20:03:41;;;;;;;37.95;19.33;;;2.70;99.90;;;;;;20883117;28;20033;-78
2021/11/10 20:13:43;;;;;;;48.75;21.05;;;2.40;99.90;;;;;;20930689;28;20109;-79
2021/11/10 20:23:44;;;;;;;55.08;23.02;;;2.50;99.90;;;;;;20906332;28;20068;-79
2021/11/10 20:33:45;;;;;;;54.60;24.95;;;2.50;99.90;;;;;;20900818;28;20033;-79
2021/11/10 20:43:46;;;;;;;45.08;20.48;;;2.50;99.90;;;;;;20957902;22;20072;-78
2021/11/10 20:53:47;;;;;;;41.28;19.33;;;2.30;99.90;;;;;;20990750;28;20047;-78
2021/11/10 21:03:49;;;;;;;37.10;18.98;;;2.30;99.90;;;;;;20998748;28;20033;-79
2021/11/10 21:13:50;;;;;;;38.88;17.40;;;2.10;99.90;;;;;;20907279;28;20546;-79
2021/11/10 21:23:51;;;;;;;35.55;16.17;;;2.10;99.90;;;;;;20924668;28;20032;-81
2021/11/10 21:33:52;;;;;;;39.47;16.42;;;1.90;99.90;;;;;;20924079;28;20048;-83
2021/11/10 21:43:53;;;;;;;36.28;16.83;;;1.90;99.90;;;;;;20908936;28;20124;-81
2021/11/10 21:53:55;;;;;;;35.28;16.85;;;1.80;99.90;;;;;;20903426;28;20586;-81
2021/11/10 22:03:56;;;;;;;37.65;18.27;;;1.80;99.90;;;;;;20923443;28;20033;-81
2021/11/10 22:13:57;;;;;;;38.80;17.67;;;1.60;99.90;;;;;;20925200;28;20043;-81
2021/11/10 22:23:59;;;;;;;38.30;17.92;;;1.80;99.90;;;;;;20953252;28;20640;-79
2021/11/10 22:34:00;;;;;;;45.33;19.58;;;1.60;99.90;;;;;;20921401;28;20040;-79
2021/11/10 22:44:01;;;;;;;41.60;18.20;;;1.50;99.90;;;;;;20943683;28;20055;-79
2021/11/10 22:54:02;;;;;;;46.95;21.33;;;1.30;99.90;;;;;;20927634;28;20033;-78
2021/11/10 23:04:05;;;;;;;47.13;19.23;;;1.40;99.90;;;;;;20938390;28;20491;-79
2021/11/10 23:14:06;;;;;;;37.20;17.25;;;1.50;99.90;;;;;;20934419;28;20514;-79
2021/11/10 23:24:07;;;;;;;32.88;15.88;;;1.50;99.90;;;;;;20935686;28;20041;-79
2021/11/10 23:34:08;;;;;;;35.00;16.10;;;1.40;99.90;;;;;;20940880;28;20039;-78
2021/11/10 23:44:09;;;;;;;35.90;16.60;;;1.30;99.90;;;;;;20931236;28;20041;-78
2021/11/10 23:54:10;;;;;;;34.33;15.60;;;1.10;99.90;;;;;;20925204;28;20033;-79
